sensor_id;sensor_type;location;lat;lon;timestamp;P1;durP1;ratioP1;P2;durP2;ratioP2
3627;SDS011;1830;49.000;12.074;2022-07-10T00:00:24;5.83;;;5.20;;
3627;SDS011;1830;49.000;12.074;2022-07-10T00:02:52;9.03;;;5.40;;
3627;SDS011;1830;49.000;12.074;2022-07-10T00:07:48;6.53;;;5.47;;
3627;SDS011;1830;49.000;12.074;2022-07-10T00:10:15;7.77;;;5.70;;
3627;SDS011;1830;49.000;12.074;2022-07-10T00:12:42;7.53;;;5.23;;
3627;SDS011;1830;49.000;12.074;2022-07-10T00:15:11;7.40;;;5.37;;
3627;SDS011;1830;49.000;12.074;2022-07-10T00:17:39;7.37;;;5.33;;
3627;SDS011;1830;49.000;12.074;2022-07-10T00:20:06;7.47;;;5.37;;
3627;SDS011;1830;49.000;12.074;2022-07-10T00:22:35;8.70;;;6.20;;
3627;SDS011;1830;49.000;12.074;2022-07-10T00:25:03;9.30;;;5.83;;
3627;SDS011;1830;49.000;12.074;2022-07-10T00:27:30;6.37;;;5.37;;
3627;SDS011;1830;49.000;12.074;2022-07-10T00:29:57;8.27;;;5.90;;
3627;SDS011;1830;49.000;12.074;2022-07-10T00:32:25;9.53;;;6.53;;
3627;SDS011;1830;49.000;12.074;2022-07-10T00:34:51;8.67;;;5.80;;
3627;SDS011;1830;49.000;12.074;2022-07-10T00:37:19;10.83;;;6.30;;
3627;SDS011;1830;49.000;12.074;2022-07-10T00:39:46;5.87;;;5.20;;
3627;SDS011;1830;49.000;12.074;2022-07-10T00:42:14;8.53;;;6.10;;
3627;SDS011;1830;49.000;12.074;2022-07-10T00:44:42;8.90;;;5.80;;
3627;SDS011;1830;49.000;12.074;2022-07-10T00:47:10;7.77;;;5.50;;
3627;SDS011;1830;49.000;12.074;2022-07-10T00:49:40;8.37;;;6.07;;
3627;SDS011;1830;49.000;12.074;2022-07-10T00:52:08;8.20;;;6.30;;
3627;SDS011;1830;49.000;12.074;2022-07-10T00:54:37;6.63;;;5.87;;
3627;SDS011;1830;49.000;12.074;2022-07-10T00:57:06;10.50;;;5.90;;
3627;SDS011;1830;49.000;12.074;2022-07-10T00:59:34;7.87;;;6.60;;
3627;SDS011;1830;49.000;12.074;2022-07-10T01:02:01;7.50;;;5.83;;
3627;SDS011;1830;49.000;12.074;2022-07-10T01:04:30;7.70;;;5.87;;
3627;SDS011;1830;49.000;12.074;2022-07-10T01:06:59;9.60;;;6.10;;
3627;SDS011;1830;49.000;12.074;2022-07-10T01:09:25;6.97;;;6.33;;
3627;SDS011;1830;49.000;12.074;2022-07-10T01:11:53;11.03;;;6.53;;
3627;SDS011;1830;49.000;12.074;2022-07-10T01:14:21;14.60;;;5.97;;
3627;SDS011;1830;49.000;12.074;2022-07-10T01:16:48;7.20;;;6.30;;
3627;SDS011;1830;49.000;12.074;2022-07-10T01:19:16;10.10;;;5.80;;
3627;SDS011;1830;49.000;12.074;2022-07-10T01:21:44;10.93;;;5.97;;
3627;SDS011;1830;49.000;12.074;2022-07-10T01:24:11;8.53;;;5.10;;
3627;SDS011;1830;49.000;12.074;2022-07-10T01:26:38;10.30;;;5.50;;
3627;SDS011;1830;49.000;12.074;2022-07-10T01:29:08;9.27;;;5.73;;
3627;SDS011;1830;49.000;12.074;2022-07-10T01:31:36;8.50;;;5.57;;
3627;SDS011;1830;49.000;12.074;2022-07-10T01:34:05;5.57;;;5.03;;
3627;SDS011;1830;49.000;12.074;2022-07-10T01:36:33;8.10;;;6.37;;
3627;SDS011;1830;49.000;12.074;2022-07-10T01:39:02;11.00;;;5.80;;
3627;SDS011;1830;49.000;12.074;2022-07-10T01:41:28;6.23;;;5.27;;
3627;SDS011;1830;49.000;12.074;2022-07-10T01:43:56;11.73;;;5.80;;
3627;SDS011;1830;49.000;12.074;2022-07-10T01:46:23;6.20;;;5.63;;
3627;SDS011;1830;49.000;12.074;2022-07-10T01:48:50;8.93;;;6.10;;
3627;SDS011;1830;49.000;12.074;2022-07-10T01:51:17;6.77;;;6.10;;
3627;SDS011;1830;49.000;12.074;2022-07-10T01:53:44;9.87;;;5.73;;
3627;SDS011;1830;49.000;12.074;2022-07-10T01:56:13;6.80;;;5.83;;
3627;SDS011;1830;49.000;12.074;2022-07-10T01:58:40;9.53;;;6.00;;
3627;SDS011;1830;49.000;12.074;2022-07-10T02:01:08;12.50;;;7.13;;
3627;SDS011;1830;49.000;12.074;2022-07-10T02:03:35;8.57;;;6.37;;
3627;SDS011;1830;49.000;12.074;2022-07-10T02:06:19;8.00;;;5.83;;
3627;SDS011;1830;49.000;12.074;2022-07-10T02:08:46;8.90;;;6.23;;
3627;SDS011;1830;49.000;12.074;2022-07-10T02:11:14;17.33;;;6.37;;
3627;SDS011;1830;49.000;12.074;2022-07-10T02:13:41;10.27;;;6.40;;
3627;SDS011;1830;49.000;12.074;2022-07-10T02:16:08;8.20;;;6.40;;
3627;SDS011;1830;49.000;12.074;2022-07-10T02:18:35;9.43;;;6.73;;
3627;SDS011;1830;49.000;12.074;2022-07-10T02:21:03;14.00;;;6.93;;
3627;SDS011;1830;49.000;12.074;2022-07-10T02:23:30;7.60;;;6.33;;
3627;SDS011;1830;49.000;12.074;2022-07-10T02:25:56;7.97;;;6.00;;
3627;SDS011;1830;49.000;12.074;2022-07-10T02:28:24;9.83;;;6.20;;
3627;SDS011;1830;49.000;12.074;2022-07-10T02:30:51;7.73;;;6.10;;
3627;SDS011;1830;49.000;12.074;2022-07-10T02:33:18;6.93;;;5.93;;
3627;SDS011;1830;49.000;12.074;2022-07-10T02:35:45;11.10;;;6.90;;
3627;SDS011;1830;49.000;12.074;2022-07-10T02:38:12;13.97;;;6.83;;
3627;SDS011;1830;49.000;12.074;2022-07-10T02:40:39;10.67;;;6.67;;
3627;SDS011;1830;49.000;12.074;2022-07-10T02:43:05;9.63;;;6.63;;
3627;SDS011;1830;49.000;12.074;2022-07-10T02:45:34;8.20;;;6.23;;
3627;SDS011;1830;49.000;12.074;2022-07-10T02:48:00;14.53;;;7.33;;
3627;SDS011;1830;49.000;12.074;2022-07-10T02:50:27;8.90;;;7.00;;
3627;SDS011;1830;49.000;12.074;2022-07-10T02:52:54;10.10;;;7.03;;
3627;SDS011;1830;49.000;12.074;2022-07-10T02:55:21;10.57;;;6.90;;
3627;SDS011;1830;49.000;12.074;2022-07-10T02:57:48;7.33;;;6.27;;
3627;SDS011;1830;49.000;12.074;2022-07-10T03:00:15;9.67;;;6.40;;
3627;SDS011;1830;49.000;12.074;2022-07-10T03:02:43;11.17;;;6.80;;
3627;SDS011;1830;49.000;12.074;2022-07-10T03:05:10;12.20;;;7.50;;
3627;SDS011;1830;49.000;12.074;2022-07-10T03:07:37;9.30;;;6.40;;
3627;SDS011;1830;49.000;12.074;2022-07-10T03:10:04;10.80;;;6.70;;
3627;SDS011;1830;49.000;12.074;2022-07-10T03:12:31;12.03;;;8.40;;
3627;SDS011;1830;49.000;12.074;2022-07-10T03:14:58;7.20;;;5.57;;
3627;SDS011;1830;49.000;12.074;2022-07-10T03:17:25;7.60;;;6.70;;
3627;SDS011;1830;49.000;12.074;2022-07-10T03:19:53;10.37;;;6.70;;
3627;SDS011;1830;49.000;12.074;2022-07-10T03:22:20;9.57;;;6.87;;
3627;SDS011;1830;49.000;12.074;2022-07-10T03:24:47;8.03;;;6.50;;
3627;SDS011;1830;49.000;12.074;2022-07-10T03:27:14;6.90;;;5.40;;
3627;SDS011;1830;49.000;12.074;2022-07-10T03:29:41;8.30;;;6.20;;
3627;SDS011;1830;49.000;12.074;2022-07-10T03:32:08;12.37;;;6.20;;
3627;SDS011;1830;49.000;12.074;2022-07-10T03:34:35;8.30;;;6.13;;
3627;SDS011;1830;49.000;12.074;2022-07-10T03:37:03;7.47;;;6.30;;
3627;SDS011;1830;49.000;12.074;2022-07-10T03:39:30;6.93;;;6.10;;
3627;SDS011;1830;49.000;12.074;2022-07-10T03:41:57;9.70;;;5.67;;
3627;SDS011;1830;49.000;12.074;2022-07-10T03:44:24;13.83;;;6.00;;
3627;SDS011;1830;49.000;12.074;2022-07-10T03:46:51;8.83;;;6.23;;
3627;SDS011;1830;49.000;12.074;2022-07-10T03:49:17;7.97;;;6.40;;
3627;SDS011;1830;49.000;12.074;2022-07-10T03:51:44;9.10;;;6.47;;
3627;SDS011;1830;49.000;12.074;2022-07-10T03:54:12;12.33;;;6.53;;
3627;SDS011;1830;49.000;12.074;2022-07-10T03:56:39;7.40;;;6.27;;
3627;SDS011;1830;49.000;12.074;2022-07-10T03:59:23;12.30;;;5.73;;
3627;SDS011;1830;49.000;12.074;2022-07-10T04:01:50;12.03;;;5.53;;
3627;SDS011;1830;49.000;12.074;2022-07-10T04:04:17;10.07;;;5.33;;
3627;SDS011;1830;49.000;12.074;2022-07-10T04:06:44;7.30;;;5.80;;
3627;SDS011;1830;49.000;12.074;2022-07-10T04:09:10;9.33;;;5.37;;
3627;SDS011;1830;49.000;12.074;2022-07-10T04:11:39;8.57;;;5.50;;
3627;SDS011;1830;49.000;12.074;2022-07-10T04:14:05;13.50;;;6.07;;
3627;SDS011;1830;49.000;12.074;2022-07-10T04:16:32;5.73;;;4.77;;
3627;SDS011;1830;49.000;12.074;2022-07-10T04:18:59;7.13;;;4.87;;
3627;SDS011;1830;49.000;12.074;2022-07-10T04:21:26;8.20;;;5.10;;
3627;SDS011;1830;49.000;12.074;2022-07-10T04:23:52;7.70;;;5.13;;
3627;SDS011;1830;49.000;12.074;2022-07-10T04:26:21;6.60;;;4.90;;
3627;SDS011;1830;49.000;12.074;2022-07-10T04:28:47;7.73;;;4.53;;
3627;SDS011;1830;49.000;12.074;2022-07-10T04:31:14;10.90;;;4.90;;
3627;SDS011;1830;49.000;12.074;2022-07-10T04:33:41;9.70;;;4.93;;
3627;SDS011;1830;49.000;12.074;2022-07-10T04:36:08;8.73;;;4.43;;
3627;SDS011;1830;49.000;12.074;2022-07-10T04:38:34;9.63;;;4.80;;
3627;SDS011;1830;49.000;12.074;2022-07-10T04:41:01;9.20;;;5.20;;
3627;SDS011;1830;49.000;12.074;2022-07-10T04:43:30;9.97;;;4.67;;
3627;SDS011;1830;49.000;12.074;2022-07-10T04:45:57;5.30;;;4.70;;
3627;SDS011;1830;49.000;12.074;2022-07-10T04:48:24;7.97;;;4.80;;
3627;SDS011;1830;49.000;12.074;2022-07-10T04:50:51;6.57;;;4.20;;
3627;SDS011;1830;49.000;12.074;2022-07-10T04:53:18;10.13;;;5.30;;
3627;SDS011;1830;49.000;12.074;2022-07-10T04:55:45;12.00;;;4.37;;
3627;SDS011;1830;49.000;12.074;2022-07-10T04:58:12;10.17;;;4.43;;
3627;SDS011;1830;49.000;12.074;2022-07-10T05:00:40;10.33;;;5.07;;
3627;SDS011;1830;49.000;12.074;2022-07-10T05:03:07;7.60;;;4.73;;
3627;SDS011;1830;49.000;12.074;2022-07-10T05:05:34;6.47;;;4.43;;
3627;SDS011;1830;49.000;12.074;2022-07-10T05:08:01;9.80;;;4.93;;
3627;SDS011;1830;49.000;12.074;2022-07-10T05:10:27;15.03;;;4.80;;
3627;SDS011;1830;49.000;12.074;2022-07-10T05:12:54;10.70;;;3.93;;
3627;SDS011;1830;49.000;12.074;2022-07-10T05:15:22;5.87;;;4.20;;
3627;SDS011;1830;49.000;12.074;2022-07-10T05:17:50;6.43;;;4.00;;
3627;SDS011;1830;49.000;12.074;2022-07-10T05:20:17;16.10;;;3.80;;
3627;SDS011;1830;49.000;12.074;2022-07-10T05:22:43;9.00;;;4.60;;
3627;SDS011;1830;49.000;12.074;2022-07-10T05:25:10;6.80;;;4.40;;
3627;SDS011;1830;49.000;12.074;2022-07-10T05:27:37;10.63;;;4.80;;
3627;SDS011;1830;49.000;12.074;2022-07-10T05:30:04;9.20;;;3.93;;
3627;SDS011;1830;49.000;12.074;2022-07-10T05:32:32;7.07;;;3.70;;
3627;SDS011;1830;49.000;12.074;2022-07-10T05:35:00;8.50;;;4.50;;
3627;SDS011;1830;49.000;12.074;2022-07-10T05:37:27;13.37;;;3.77;;
3627;SDS011;1830;49.000;12.074;2022-07-10T05:39:54;10.10;;;3.83;;
3627;SDS011;1830;49.000;12.074;2022-07-10T05:42:21;5.33;;;3.50;;
3627;SDS011;1830;49.000;12.074;2022-07-10T05:44:47;13.50;;;4.23;;
3627;SDS011;1830;49.000;12.074;2022-07-10T05:47:14;11.53;;;3.83;;
3627;SDS011;1830;49.000;12.074;2022-07-10T05:49:41;11.03;;;4.00;;
3627;SDS011;1830;49.000;12.074;2022-07-10T05:52:10;9.60;;;3.93;;
3627;SDS011;1830;49.000;12.074;2022-07-10T05:54:37;7.80;;;3.50;;
3627;SDS011;1830;49.000;12.074;2022-07-10T05:57:04;14.17;;;4.30;;
3627;SDS011;1830;49.000;12.074;2022-07-10T05:59:32;5.83;;;3.67;;
3627;SDS011;1830;49.000;12.074;2022-07-10T06:02:00;11.13;;;4.07;;
3627;SDS011;1830;49.000;12.074;2022-07-10T06:04:27;7.87;;;4.10;;
3627;SDS011;1830;49.000;12.074;2022-07-10T06:06:54;8.77;;;3.77;;
3627;SDS011;1830;49.000;12.074;2022-07-10T06:09:22;9.30;;;4.30;;
3627;SDS011;1830;49.000;12.074;2022-07-10T06:11:49;11.83;;;4.30;;
3627;SDS011;1830;49.000;12.074;2022-07-10T06:14:16;12.20;;;4.70;;
3627;SDS011;1830;49.000;12.074;2022-07-10T06:16:43;13.43;;;4.07;;
3627;SDS011;1830;49.000;12.074;2022-07-10T06:19:09;11.97;;;4.50;;
3627;SDS011;1830;49.000;12.074;2022-07-10T06:21:37;9.13;;;4.03;;
3627;SDS011;1830;49.000;12.074;2022-07-10T06:24:04;11.37;;;3.67;;
3627;SDS011;1830;49.000;12.074;2022-07-10T06:26:32;8.20;;;3.77;;
3627;SDS011;1830;49.000;12.074;2022-07-10T06:28:59;7.37;;;4.80;;
3627;SDS011;1830;49.000;12.074;2022-07-10T06:31:26;17.53;;;4.87;;
3627;SDS011;1830;49.000;12.074;2022-07-10T06:33:53;9.00;;;3.73;;
3627;SDS011;1830;49.000;12.074;2022-07-10T06:36:20;16.57;;;3.93;;
3627;SDS011;1830;49.000;12.074;2022-07-10T06:38:47;10.13;;;3.90;;
3627;SDS011;1830;49.000;12.074;2022-07-10T06:41:14;10.37;;;4.00;;
3627;SDS011;1830;49.000;12.074;2022-07-10T06:43:42;12.60;;;4.03;;
3627;SDS011;1830;49.000;12.074;2022-07-10T06:46:09;9.93;;;3.40;;
3627;SDS011;1830;49.000;12.074;2022-07-10T06:48:36;7.63;;;3.23;;
3627;SDS011;1830;49.000;12.074;2022-07-10T06:51:06;9.10;;;3.83;;
3627;SDS011;1830;49.000;12.074;2022-07-10T06:53:33;7.70;;;3.17;;
3627;SDS011;1830;49.000;12.074;2022-07-10T06:56:00;8.73;;;3.43;;
3627;SDS011;1830;49.000;12.074;2022-07-10T06:58:27;7.10;;;3.23;;
3627;SDS011;1830;49.000;12.074;2022-07-10T07:00:55;10.40;;;3.63;;
3627;SDS011;1830;49.000;12.074;2022-07-10T07:03:22;6.83;;;2.87;;
3627;SDS011;1830;49.000;12.074;2022-07-10T07:05:49;7.50;;;3.40;;
3627;SDS011;1830;49.000;12.074;2022-07-10T07:08:16;8.43;;;3.13;;
3627;SDS011;1830;49.000;12.074;2022-07-10T07:10:43;13.07;;;3.73;;
3627;SDS011;1830;49.000;12.074;2022-07-10T07:13:10;10.63;;;3.20;;
3627;SDS011;1830;49.000;12.074;2022-07-10T07:15:37;4.27;;;2.70;;
3627;SDS011;1830;49.000;12.074;2022-07-10T07:18:08;8.63;;;3.60;;
3627;SDS011;1830;49.000;12.074;2022-07-10T07:20:37;9.87;;;3.30;;
3627;SDS011;1830;49.000;12.074;2022-07-10T07:23:26;9.27;;;3.20;;
3627;SDS011;1830;49.000;12.074;2022-07-10T07:25:54;7.03;;;3.00;;
3627;SDS011;1830;49.000;12.074;2022-07-10T07:28:20;5.63;;;3.10;;
3627;SDS011;1830;49.000;12.074;2022-07-10T07:30:47;6.23;;;2.77;;
3627;SDS011;1830;49.000;12.074;2022-07-10T07:33:16;9.97;;;2.73;;
3627;SDS011;1830;49.000;12.074;2022-07-10T07:35:43;8.30;;;2.80;;
3627;SDS011;1830;49.000;12.074;2022-07-10T07:38:10;8.83;;;2.67;;
3627;SDS011;1830;49.000;12.074;2022-07-10T07:40:37;5.20;;;3.10;;
3627;SDS011;1830;49.000;12.074;2022-07-10T07:43:04;12.20;;;2.80;;
3627;SDS011;1830;49.000;12.074;2022-07-10T07:45:31;4.97;;;2.07;;
3627;SDS011;1830;49.000;12.074;2022-07-10T07:47:58;6.40;;;2.37;;
3627;SDS011;1830;49.000;12.074;2022-07-10T07:50:29;5.83;;;2.30;;
3627;SDS011;1830;49.000;12.074;2022-07-10T07:52:58;10.07;;;2.10;;
3627;SDS011;1830;49.000;12.074;2022-07-10T07:55:25;5.93;;;2.67;;
3627;SDS011;1830;49.000;12.074;2022-07-10T07:57:53;4.33;;;2.00;;
3627;SDS011;1830;49.000;12.074;2022-07-10T08:00:22;3.80;;;2.23;;
3627;SDS011;1830;49.000;12.074;2022-07-10T08:02:50;9.80;;;2.33;;
3627;SDS011;1830;49.000;12.074;2022-07-10T08:05:17;5.40;;;1.80;;
3627;SDS011;1830;49.000;12.074;2022-07-10T08:07:46;5.17;;;1.90;;
3627;SDS011;1830;49.000;12.074;2022-07-10T08:10:17;12.63;;;2.10;;
3627;SDS011;1830;49.000;12.074;2022-07-10T08:12:45;4.30;;;1.73;;
3627;SDS011;1830;49.000;12.074;2022-07-10T08:15:13;6.63;;;1.93;;
3627;SDS011;1830;49.000;12.074;2022-07-10T08:17:40;3.57;;;1.80;;
3627;SDS011;1830;49.000;12.074;2022-07-10T08:20:10;6.20;;;1.60;;
3627;SDS011;1830;49.000;12.074;2022-07-10T08:22:37;5.07;;;1.87;;
3627;SDS011;1830;49.000;12.074;2022-07-10T08:25:06;2.53;;;1.73;;
3627;SDS011;1830;49.000;12.074;2022-07-10T08:27:34;5.80;;;2.23;;
3627;SDS011;1830;49.000;12.074;2022-07-10T08:30:01;4.50;;;2.10;;
3627;SDS011;1830;49.000;12.074;2022-07-10T08:32:28;6.77;;;2.10;;
3627;SDS011;1830;49.000;12.074;2022-07-10T08:34:55;6.43;;;1.93;;
3627;SDS011;1830;49.000;12.074;2022-07-10T08:37:22;3.27;;;1.80;;
3627;SDS011;1830;49.000;12.074;2022-07-10T08:39:49;7.93;;;2.10;;
3627;SDS011;1830;49.000;12.074;2022-07-10T08:42:17;4.57;;;2.00;;
3627;SDS011;1830;49.000;12.074;2022-07-10T08:44:44;2.97;;;1.87;;
3627;SDS011;1830;49.000;12.074;2022-07-10T08:47:11;5.57;;;2.50;;
3627;SDS011;1830;49.000;12.074;2022-07-10T08:49:44;6.57;;;1.73;;
3627;SDS011;1830;49.000;12.074;2022-07-10T08:52:15;6.83;;;2.10;;
3627;SDS011;1830;49.000;12.074;2022-07-10T08:54:50;4.77;;;1.90;;
3627;SDS011;1830;49.000;12.074;2022-07-10T08:57:19;5.47;;;1.53;;
3627;SDS011;1830;49.000;12.074;2022-07-10T08:59:46;4.30;;;2.10;;
3627;SDS011;1830;49.000;12.074;2022-07-10T09:02:13;4.20;;;1.77;;
3627;SDS011;1830;49.000;12.074;2022-07-10T09:04:40;4.70;;;2.23;;
3627;SDS011;1830;49.000;12.074;2022-07-10T09:07:06;5.73;;;1.70;;
3627;SDS011;1830;49.000;12.074;2022-07-10T09:09:36;5.77;;;1.90;;
3627;SDS011;1830;49.000;12.074;2022-07-10T09:12:17;5.73;;;1.90;;
3627;SDS011;1830;49.000;12.074;2022-07-10T09:14:46;4.37;;;1.50;;
3627;SDS011;1830;49.000;12.074;2022-07-10T09:17:13;6.67;;;1.77;;
3627;SDS011;1830;49.000;12.074;2022-07-10T09:19:40;3.43;;;1.50;;
3627;SDS011;1830;49.000;12.074;2022-07-10T09:22:08;9.40;;;2.00;;
3627;SDS011;1830;49.000;12.074;2022-07-10T09:24:35;3.67;;;1.70;;
3627;SDS011;1830;49.000;12.074;2022-07-10T09:27:03;7.60;;;2.37;;
3627;SDS011;1830;49.000;12.074;2022-07-10T09:29:32;3.87;;;2.37;;
3627;SDS011;1830;49.000;12.074;2022-07-10T09:32:11;9.80;;;5.10;;
3627;SDS011;1830;49.000;12.074;2022-07-10T09:34:39;6.90;;;2.20;;
3627;SDS011;1830;49.000;12.074;2022-07-10T09:37:23;4.53;;;1.70;;
3627;SDS011;1830;49.000;12.074;2022-07-10T09:39:55;4.47;;;2.07;;
3627;SDS011;1830;49.000;12.074;2022-07-10T09:42:24;9.93;;;4.27;;
3627;SDS011;1830;49.000;12.074;2022-07-10T09:44:53;3.30;;;2.20;;
3627;SDS011;1830;49.000;12.074;2022-07-10T09:47:41;3.27;;;1.60;;
3627;SDS011;1830;49.000;12.074;2022-07-10T09:50:19;6.90;;;1.90;;
3627;SDS011;1830;49.000;12.074;2022-07-10T09:52:47;5.37;;;1.90;;
3627;SDS011;1830;49.000;12.074;2022-07-10T09:55:16;6.07;;;1.80;;
3627;SDS011;1830;49.000;12.074;2022-07-10T09:57:45;4.33;;;1.77;;
3627;SDS011;1830;49.000;12.074;2022-07-10T10:00:21;7.30;;;2.47;;
3627;SDS011;1830;49.000;12.074;2022-07-10T10:02:52;5.80;;;2.10;;
3627;SDS011;1830;49.000;12.074;2022-07-10T10:05:26;4.83;;;1.93;;
3627;SDS011;1830;49.000;12.074;2022-07-10T10:08:10;6.20;;;2.00;;
3627;SDS011;1830;49.000;12.074;2022-07-10T10:10:40;4.73;;;1.80;;
3627;SDS011;1830;49.000;12.074;2022-07-10T10:13:12;6.10;;;1.50;;
3627;SDS011;1830;49.000;12.074;2022-07-10T10:15:44;7.20;;;3.00;;
3627;SDS011;1830;49.000;12.074;2022-07-10T10:18:13;5.10;;;2.77;;
3627;SDS011;1830;49.000;12.074;2022-07-10T10:20:43;6.63;;;2.27;;
3627;SDS011;1830;49.000;12.074;2022-07-10T10:23:12;9.30;;;2.33;;
3627;SDS011;1830;49.000;12.074;2022-07-10T10:25:40;16.50;;;2.07;;
3627;SDS011;1830;49.000;12.074;2022-07-10T10:28:08;4.70;;;1.63;;
3627;SDS011;1830;49.000;12.074;2022-07-10T10:30:36;4.00;;;1.80;;
3627;SDS011;1830;49.000;12.074;2022-07-10T10:36:06;6.07;;;1.90;;
3627;SDS011;1830;49.000;12.074;2022-07-10T10:41:28;8.40;;;1.97;;
3627;SDS011;1830;49.000;12.074;2022-07-10T10:46:54;5.77;;;1.60;;
3627;SDS011;1830;49.000;12.074;2022-07-10T10:52:19;3.73;;;1.63;;
3627;SDS011;1830;49.000;12.074;2022-07-10T10:54:58;3.80;;;1.60;;
3627;SDS011;1830;49.000;12.074;2022-07-10T10:57:34;4.70;;;1.90;;
3627;SDS011;1830;49.000;12.074;2022-07-10T11:00:05;5.67;;;2.10;;
3627;SDS011;1830;49.000;12.074;2022-07-10T11:02:34;11.57;;;1.73;;
3627;SDS011;1830;49.000;12.074;2022-07-10T11:08:10;6.80;;;2.07;;
3627;SDS011;1830;49.000;12.074;2022-07-10T11:10:38;6.90;;;1.50;;
3627;SDS011;1830;49.000;12.074;2022-07-10T11:13:06;7.93;;;2.03;;
3627;SDS011;1830;49.000;12.074;2022-07-10T11:15:34;3.77;;;2.00;;
3627;SDS011;1830;49.000;12.074;2022-07-10T11:18:04;3.73;;;1.40;;
3627;SDS011;1830;49.000;12.074;2022-07-10T11:20:32;3.40;;;1.67;;
3627;SDS011;1830;49.000;12.074;2022-07-10T11:23:06;9.03;;;1.80;;
3627;SDS011;1830;49.000;12.074;2022-07-10T11:25:41;3.67;;;1.60;;
3627;SDS011;1830;49.000;12.074;2022-07-10T11:28:15;5.80;;;1.30;;
3627;SDS011;1830;49.000;12.074;2022-07-10T11:30:51;7.20;;;1.77;;
3627;SDS011;1830;49.000;12.074;2022-07-10T11:33:19;4.43;;;1.47;;
3627;SDS011;1830;49.000;12.074;2022-07-10T11:35:47;4.13;;;1.40;;
3627;SDS011;1830;49.000;12.074;2022-07-10T11:38:19;10.60;;;1.70;;
3627;SDS011;1830;49.000;12.074;2022-07-10T11:40:46;3.07;;;1.17;;
3627;SDS011;1830;49.000;12.074;2022-07-10T11:43:14;3.83;;;1.20;;
3627;SDS011;1830;49.000;12.074;2022-07-10T11:45:42;3.23;;;1.33;;
3627;SDS011;1830;49.000;12.074;2022-07-10T11:48:16;5.43;;;1.83;;
3627;SDS011;1830;49.000;12.074;2022-07-10T11:50:43;6.43;;;1.63;;
3627;SDS011;1830;49.000;12.074;2022-07-10T11:53:10;4.97;;;1.37;;
3627;SDS011;1830;49.000;12.074;2022-07-10T11:55:38;1.97;;;1.13;;
3627;SDS011;1830;49.000;12.074;2022-07-10T11:58:13;2.23;;;1.37;;
3627;SDS011;1830;49.000;12.074;2022-07-10T12:00:40;4.10;;;1.13;;
3627;SDS011;1830;49.000;12.074;2022-07-10T12:03:17;4.83;;;1.50;;
3627;SDS011;1830;49.000;12.074;2022-07-10T12:05:46;4.37;;;1.40;;
3627;SDS011;1830;49.000;12.074;2022-07-10T12:08:14;4.10;;;1.23;;
3627;SDS011;1830;49.000;12.074;2022-07-10T12:10:42;4.40;;;1.50;;
3627;SDS011;1830;49.000;12.074;2022-07-10T12:13:09;1.90;;;1.00;;
3627;SDS011;1830;49.000;12.074;2022-07-10T12:15:38;2.30;;;1.17;;
3627;SDS011;1830;49.000;12.074;2022-07-10T12:18:06;1.90;;;1.20;;
3627;SDS011;1830;49.000;12.074;2022-07-10T12:20:34;5.83;;;1.30;;
3627;SDS011;1830;49.000;12.074;2022-07-10T12:23:03;3.80;;;1.20;;
3627;SDS011;1830;49.000;12.074;2022-07-10T12:25:30;8.00;;;1.10;;
3627;SDS011;1830;49.000;12.074;2022-07-10T12:27:58;2.23;;;1.00;;
3627;SDS011;1830;49.000;12.074;2022-07-10T12:30:38;2.97;;;1.90;;
3627;SDS011;1830;49.000;12.074;2022-07-10T12:33:07;4.30;;;2.73;;
3627;SDS011;1830;49.000;12.074;2022-07-10T12:35:45;6.53;;;2.30;;
3627;SDS011;1830;49.000;12.074;2022-07-10T12:38:16;4.33;;;1.20;;
3627;SDS011;1830;49.000;12.074;2022-07-10T12:40:44;2.93;;;1.30;;
3627;SDS011;1830;49.000;12.074;2022-07-10T12:43:12;1.67;;;0.90;;
3627;SDS011;1830;49.000;12.074;2022-07-10T12:48:34;2.60;;;1.17;;
3627;SDS011;1830;49.000;12.074;2022-07-10T12:53:53;2.97;;;1.10;;
3627;SDS011;1830;49.000;12.074;2022-07-10T12:56:30;1.83;;;0.63;;
3627;SDS011;1830;49.000;12.074;2022-07-10T12:59:03;1.50;;;0.87;;
3627;SDS011;1830;49.000;12.074;2022-07-10T13:01:41;3.27;;;0.97;;
3627;SDS011;1830;49.000;12.074;2022-07-10T13:04:10;1.60;;;1.00;;
3627;SDS011;1830;49.000;12.074;2022-07-10T13:06:37;3.20;;;1.17;;
3627;SDS011;1830;49.000;12.074;2022-07-10T13:09:18;5.60;;;1.00;;
3627;SDS011;1830;49.000;12.074;2022-07-10T13:11:46;1.90;;;1.00;;
3627;SDS011;1830;49.000;12.074;2022-07-10T13:14:14;2.90;;;0.90;;
3627;SDS011;1830;49.000;12.074;2022-07-10T13:16:41;3.10;;;1.10;;
3627;SDS011;1830;49.000;12.074;2022-07-10T13:19:08;4.20;;;1.00;;
3627;SDS011;1830;49.000;12.074;2022-07-10T13:21:35;1.83;;;0.93;;
3627;SDS011;1830;49.000;12.074;2022-07-10T13:24:02;2.33;;;1.00;;
3627;SDS011;1830;49.000;12.074;2022-07-10T13:26:29;2.17;;;0.90;;
3627;SDS011;1830;49.000;12.074;2022-07-10T13:28:56;3.07;;;0.93;;
3627;SDS011;1830;49.000;12.074;2022-07-10T13:31:25;9.10;;;1.20;;
3627;SDS011;1830;49.000;12.074;2022-07-10T13:33:52;1.77;;;0.90;;
3627;SDS011;1830;49.000;12.074;2022-07-10T13:36:20;3.57;;;1.33;;
3627;SDS011;1830;49.000;12.074;2022-07-10T13:38:47;4.33;;;0.93;;
3627;SDS011;1830;49.000;12.074;2022-07-10T13:41:14;3.17;;;1.30;;
3627;SDS011;1830;49.000;12.074;2022-07-10T13:43:41;3.33;;;1.20;;
3627;SDS011;1830;49.000;12.074;2022-07-10T13:46:08;3.00;;;1.27;;
3627;SDS011;1830;49.000;12.074;2022-07-10T13:48:36;1.60;;;1.10;;
3627;SDS011;1830;49.000;12.074;2022-07-10T13:51:03;1.63;;;1.10;;
3627;SDS011;1830;49.000;12.074;2022-07-10T13:53:30;1.33;;;0.83;;
3627;SDS011;1830;49.000;12.074;2022-07-10T13:55:57;3.43;;;1.30;;
3627;SDS011;1830;49.000;12.074;2022-07-10T13:58:24;2.90;;;1.33;;
3627;SDS011;1830;49.000;12.074;2022-07-10T14:00:51;2.20;;;0.90;;
3627;SDS011;1830;49.000;12.074;2022-07-10T14:03:18;3.03;;;1.30;;
3627;SDS011;1830;49.000;12.074;2022-07-10T14:05:46;2.57;;;1.13;;
3627;SDS011;1830;49.000;12.074;2022-07-10T14:08:13;2.00;;;1.03;;
3627;SDS011;1830;49.000;12.074;2022-07-10T14:10:39;2.10;;;0.93;;
3627;SDS011;1830;49.000;12.074;2022-07-10T14:13:06;1.83;;;0.90;;
3627;SDS011;1830;49.000;12.074;2022-07-10T14:15:34;1.50;;;0.83;;
3627;SDS011;1830;49.000;12.074;2022-07-10T14:18:01;2.43;;;1.10;;
3627;SDS011;1830;49.000;12.074;2022-07-10T14:20:28;5.27;;;1.23;;
3627;SDS011;1830;49.000;12.074;2022-07-10T14:23:17;6.00;;;1.50;;
3627;SDS011;1830;49.000;12.074;2022-07-10T14:25:44;2.13;;;1.10;;
3627;SDS011;1830;49.000;12.074;2022-07-10T14:28:11;5.53;;;1.70;;
3627;SDS011;1830;49.000;12.074;2022-07-10T14:30:39;4.30;;;1.50;;
3627;SDS011;1830;49.000;12.074;2022-07-10T14:33:05;1.63;;;1.00;;
3627;SDS011;1830;49.000;12.074;2022-07-10T14:35:32;3.90;;;1.00;;
3627;SDS011;1830;49.000;12.074;2022-07-10T14:37:59;1.50;;;0.80;;
3627;SDS011;1830;49.000;12.074;2022-07-10T14:40:27;2.10;;;1.10;;
3627;SDS011;1830;49.000;12.074;2022-07-10T14:42:55;2.77;;;1.37;;
3627;SDS011;1830;49.000;12.074;2022-07-10T14:45:23;3.20;;;1.00;;
3627;SDS011;1830;49.000;12.074;2022-07-10T14:47:50;4.30;;;1.10;;
3627;SDS011;1830;49.000;12.074;2022-07-10T14:50:16;1.20;;;0.80;;
3627;SDS011;1830;49.000;12.074;2022-07-10T14:52:43;1.60;;;1.10;;
3627;SDS011;1830;49.000;12.074;2022-07-10T14:55:10;7.67;;;2.33;;
3627;SDS011;1830;49.000;12.074;2022-07-10T14:57:38;3.33;;;1.13;;
3627;SDS011;1830;49.000;12.074;2022-07-10T15:00:05;5.37;;;1.30;;
3627;SDS011;1830;49.000;12.074;2022-07-10T15:02:32;2.37;;;1.23;;
3627;SDS011;1830;49.000;12.074;2022-07-10T15:04:59;2.33;;;1.10;;
3627;SDS011;1830;49.000;12.074;2022-07-10T15:07:27;3.07;;;1.20;;
3627;SDS011;1830;49.000;12.074;2022-07-10T15:09:54;2.80;;;1.03;;
3627;SDS011;1830;49.000;12.074;2022-07-10T15:12:21;3.70;;;1.47;;
3627;SDS011;1830;49.000;12.074;2022-07-10T15:14:49;1.93;;;1.00;;
3627;SDS011;1830;49.000;12.074;2022-07-10T15:17:16;4.17;;;1.10;;
3627;SDS011;1830;49.000;12.074;2022-07-10T15:19:42;1.63;;;0.90;;
3627;SDS011;1830;49.000;12.074;2022-07-10T15:22:09;1.80;;;1.00;;
3627;SDS011;1830;49.000;12.074;2022-07-10T15:24:36;2.63;;;1.23;;
3627;SDS011;1830;49.000;12.074;2022-07-10T15:27:04;4.77;;;1.17;;